If you wish to contribute or participate in the discussions about articles you are invited to join SKYbrary as a registered user

 Actions

Ain Arnat Airport

From SKYbrary Wiki

DAAS
Airport
ICAO: DAAS – IATA: QSF
Summary
Name Ain Arnat Airport
Region Africa
Territory Algeria DZ.gif
Location , Setif
Serving Setif
Elevation 1,024.128 m <br />3,360 ft <br />3,360 ft1,024.128 m <br />
Type medium airport
Coordinates 36° 10' 41.16" N, 5° 19' 28.16" E
Runways
Designator Length Width Surface ROPS


METAR
Observation DAAS 181800Z 36007KT 9999 FEW026 07/M01 Q1020
Station Setif
Date/Time 18 April 2021 18:00:00
Wind direction 360°
Wind speed 07 kts
Lowest cloud amount few clouds
Temperature 7°C
Dew point
Humidity 56%
QNH 1020 hPa
Weather condition n/a